PWSweather.com
Personal Weather Stations
Station Observations
OPENSRS
Liberty Village, Toronto, ON M6K 3M1

Liberty VillageToronto, ON M6K 3M1

Lat: 43.63831, Lon: -79.42566

Elevation: 303

Station Type: Davis Instruments Vantage Pro 2

Latest ConditionsUpdated 2:13:06 AM EDT Sunday, Sep 21, 2014
Currently Today's Max Today's Min Today's Average
Temperature 67.7°F19.8°C 70.4°F21.3°C 67.3°F19.6°C 68.6°F20.3°C
Dew Point 62.7°F17.1°C 64.6°F18.1°C 62.6°F17.0°C 63.4°F17.4°C
Winds Calm Calm 12.0 mph SW19.3 kmh SW - 4.7 mph 7.6 kmh
Wind Gusts 12.0 mph19.3 kmh 19.0 mph30.6 kmh - -
Humidity 84% 86% 81% 84%
Pressure 29.71 in1006.1 mb 29.73 in1006.8 mb 29.71 in1006.1 mb -
Hour Temp Dew Point Humidity Winds Wind Gusts Pressure Precip Precip Rate Daily Precip Total
02:13 AM 67.7°F19.8°C 62.7°F17.1°C 84% Calm Calm 12.0 mph19.3 kmh 29.71 in1006.1 mb 0.00 in0.0 mm 0.00 in/hr0.0 mm/hr 0.00 in0.0 mm
02:10 AM 67.8°F19.9°C 62.8°F17.1°C 84% 6.0 mph SW9.7 kmh SW 12.0 mph19.3 kmh 29.71 in1006.1 mb 0.00 in0.0 mm 0.00 in/hr0.0 mm/hr 0.00 in0.0 mm
02:09 AM 67.8°F19.9°C 62.8°F17.1°C 84% 3.0 mph SW4.8 kmh SW 12.0 mph19.3 kmh 29.71 in1006.1 mb 0.00 in0.0 mm 0.00 in/hr0.0 mm/hr 0.00 in0.0 mm
02:08 AM 67.9°F19.9°C 62.9°F17.2°C 84% 6.0 mph SW9.7 kmh SW 12.0 mph19.3 kmh 29.71 in1006.1 mb 0.00 in0.0 mm 0.00 in/hr0.0 mm/hr 0.00 in0.0 mm
02:05 AM 68.0°F20.0°C 63.0°F17.2°C 84% 6.0 mph SW9.7 kmh SW 12.0 mph19.3 kmh 29.71 in1006.1 mb 0.00 in0.0 mm 0.00 in/hr0.0 mm/hr 0.00 in0.0 mm
02:04 AM 68.0°F20.0°C 63.0°F17.2°C 84% 4.0 mph SW6.4 kmh SW 12.0 mph19.3 kmh 29.71 in1006.1 mb 0.00 in0.0 mm 0.00 in/hr0.0 mm/hr 0.00 in0.0 mm
02:03 AM 68.0°F20.0°C 63.0°F17.2°C 84% 5.0 mph SW8.0 kmh SW 12.0 mph19.3 kmh 29.71 in1006.1 mb 0.00 in0.0 mm 0.00 in/hr0.0 mm/hr 0.00 in0.0 mm
02:00 AM 68.2°F20.1°C 62.9°F17.2°C 83% 4.0 mph S6.4 kmh S 4.0 mph6.4 kmh 29.71 in1006.1 mb 0.00 in0.0 mm 0.00 in/hr0.0 mm/hr 0.00 in0.0 mm
01:59 AM 68.2°F20.1°C 62.9°F17.2°C 83% Calm Calm 16.0 mph25.7 kmh 29.71 in1006.1 mb 0.00 in0.0 mm 0.00 in/hr0.0 mm/hr 0.00 in0.0 mm
01:58 AM 68.2°F20.1°C 62.9°F17.2°C 83% Calm Calm 16.0 mph25.7 kmh 29.71 in1006.1 mb 0.00 in0.0 mm 0.00 in/hr0.0 mm/hr 0.00 in0.0 mm
01:55 AM 68.3°F20.2°C 62.9°F17.2°C 83% 9.0 mph SW14.5 kmh SW 16.0 mph25.7 kmh 29.71 in1006.1 mb 0.00 in0.0 mm 0.00 in/hr0.0 mm/hr 0.00 in0.0 mm
01:54 AM 68.4°F20.2°C 63.0°F17.2°C 83% 5.0 mph SW8.0 kmh SW 16.0 mph25.7 kmh 29.71 in1006.1 mb 0.00 in0.0 mm 0.00 in/hr0.0 mm/hr 0.00 in0.0 mm
01:53 AM 68.4°F20.2°C 63.0°F17.2°C 83% 8.0 mph SW12.9 kmh SW 16.0 mph25.7 kmh 29.71 in1006.1 mb 0.00 in0.0 mm 0.00 in/hr0.0 mm/hr 0.00 in0.0 mm
01:50 AM 68.5°F20.3°C 63.1°F17.3°C 83% 4.0 mph SW6.4 kmh SW 16.0 mph25.7 kmh 29.71 in1006.1 mb 0.00 in0.0 mm 0.00 in/hr0.0 mm/hr 0.00 in0.0 mm
01:49 AM 68.6°F20.3°C 63.2°F17.3°C 83% Calm Calm 16.0 mph25.7 kmh 29.71 in1006.1 mb 0.00 in0.0 mm 0.00 in/hr0.0 mm/hr 0.00 in0.0 mm
01:48 AM 68.6°F20.3°C 63.2°F17.3°C 83% 4.0 mph WSW6.4 kmh WSW 16.0 mph25.7 kmh 29.71 in1006.1 mb 0.00 in0.0 mm 0.00 in/hr0.0 mm/hr 0.00 in0.0 mm
01:45 AM 68.8°F20.4°C 63.4°F17.4°C 83% 5.0 mph SW8.0 kmh SW 16.0 mph25.7 kmh 29.71 in1006.1 mb 0.00 in0.0 mm 0.00 in/hr0.0 mm/hr 0.00 in0.0 mm
01:44 AM 68.8°F20.4°C 63.4°F17.4°C 83% 3.0 mph SW4.8 kmh SW 16.0 mph25.7 kmh 29.71 in1006.1 mb 0.00 in0.0 mm 0.00 in/hr0.0 mm/hr 0.00 in0.0 mm
01:43 AM 68.8°F20.4°C 63.4°F17.4°C 83% 10.0 mph SW16.1 kmh SW 16.0 mph25.7 kmh 29.71 in1006.1 mb 0.00 in0.0 mm 0.00 in/hr0.0 mm/hr 0.00 in0.0 mm
01:40 AM 69.0°F20.6°C 63.6°F17.6°C 83% 3.0 mph SW4.8 kmh SW 16.0 mph25.7 kmh 29.71 in1006.1 mb 0.00 in0.0 mm 0.00 in/hr0.0 mm/hr 0.00 in0.0 mm
01:39 AM 69.1°F20.6°C 63.4°F17.4°C 82% 3.0 mph SW4.8 kmh SW 16.0 mph25.7 kmh 29.71 in1006.1 mb 0.00 in0.0 mm 0.00 in/hr0.0 mm/hr 0.00 in0.0 mm
01:38 AM 69.1°F20.6°C 63.4°F17.4°C 82% 8.0 mph SW12.9 kmh SW 16.0 mph25.7 kmh 29.71 in1006.1 mb 0.00 in0.0 mm 0.00 in/hr0.0 mm/hr 0.00 in0.0 mm
01:35 AM 69.3°F20.7°C 63.6°F17.6°C 82% 6.0 mph SW9.7 kmh SW 16.0 mph25.7 kmh 29.71 in1006.1 mb 0.00 in0.0 mm 0.00 in/hr0.0 mm/hr 0.00 in0.0 mm
01:34 AM 69.3°F20.7°C 63.6°F17.6°C 82% 6.0 mph SW9.7 kmh SW 16.0 mph25.7 kmh 29.71 in1006.1 mb 0.00 in0.0 mm 0.00 in/hr0.0 mm/hr 0.00 in0.0 mm
01:33 AM 69.3°F20.7°C 63.6°F17.6°C 82% 8.0 mph SW12.9 kmh SW 16.0 mph25.7 kmh 29.71 in1006.1 mb 0.00 in0.0 mm 0.00 in/hr0.0 mm/hr 0.00 in0.0 mm
01:30 AM 69.4°F20.8°C 63.7°F17.6°C 82% 7.0 mph SW11.3 kmh SW 16.0 mph25.7 kmh 29.72 in1006.4 mb 0.00 in0.0 mm 0.00 in/hr0.0 mm/hr 0.00 in0.0 mm
01:29 AM 69.4°F20.8°C 63.7°F17.6°C 82% 8.0 mph WSW12.9 kmh WSW 16.0 mph25.7 kmh 29.72 in1006.4 mb 0.00 in0.0 mm 0.00 in/hr0.0 mm/hr 0.00 in0.0 mm
01:28 AM 69.5°F20.8°C 63.8°F17.7°C 82% 5.0 mph SW8.0 kmh SW 16.0 mph25.7 kmh 29.72 in1006.4 mb 0.00 in0.0 mm 0.00 in/hr0.0 mm/hr 0.00 in0.0 mm
01:25 AM 69.5°F20.8°C 63.8°F17.7°C 82% 5.0 mph SW8.0 kmh SW 16.0 mph25.7 kmh 29.72 in1006.4 mb 0.00 in0.0 mm 0.00 in/hr0.0 mm/hr 0.00 in0.0 mm
01:24 AM 69.5°F20.8°C 63.8°F17.7°C 82% 10.0 mph SSW16.1 kmh SSW 16.0 mph25.7 kmh 29.72 in1006.4 mb 0.00 in0.0 mm 0.00 in/hr0.0 mm/hr 0.00 in0.0 mm
01:23 AM 69.6°F20.9°C 63.9°F17.7°C 82% 3.0 mph WSW4.8 kmh WSW 16.0 mph25.7 kmh 29.72 in1006.4 mb 0.00 in0.0 mm 0.00 in/hr0.0 mm/hr 0.00 in0.0 mm
01:20 AM 69.6°F20.9°C 63.9°F17.7°C 82% 5.0 mph SW8.0 kmh SW 16.0 mph25.7 kmh 29.72 in1006.4 mb 0.00 in0.0 mm 0.00 in/hr0.0 mm/hr 0.00 in0.0 mm
01:19 AM 69.7°F20.9°C 64.0°F17.8°C 82% 12.0 mph SW19.3 kmh SW 16.0 mph25.7 kmh 29.72 in1006.4 mb 0.00 in0.0 mm 0.00 in/hr0.0 mm/hr 0.00 in0.0 mm
01:18 AM 69.7°F20.9°C 64.0°F17.8°C 82% 9.0 mph SSW14.5 kmh SSW 16.0 mph25.7 kmh 29.72 in1006.4 mb 0.00 in0.0 mm 0.00 in/hr0.0 mm/hr 0.00 in0.0 mm
01:15 AM 70.0°F21.1°C 63.9°F17.7°C 81% 9.0 mph SW14.5 kmh SW 16.0 mph25.7 kmh 29.72 in1006.4 mb 0.00 in0.0 mm 0.00 in/hr0.0 mm/hr 0.00 in0.0 mm
01:14 AM 70.1°F21.2°C 64.0°F17.8°C 81% 7.0 mph SW11.3 kmh SW 16.0 mph25.7 kmh 29.72 in1006.4 mb 0.00 in0.0 mm 0.00 in/hr0.0 mm/hr 0.00 in0.0 mm
01:13 AM 70.2°F21.2°C 64.1°F17.8°C 81% 7.0 mph WSW11.3 kmh WSW 16.0 mph25.7 kmh 29.72 in1006.4 mb 0.00 in0.0 mm 0.00 in/hr0.0 mm/hr 0.00 in0.0 mm
01:10 AM 70.4°F21.3°C 64.3°F17.9°C 81% 10.0 mph SW16.1 kmh SW 16.0 mph25.7 kmh 29.72 in1006.4 mb 0.00 in0.0 mm 0.00 in/hr0.0 mm/hr 0.00 in0.0 mm
01:09 AM 70.4°F21.3°C 64.3°F17.9°C 81% 3.0 mph SW4.8 kmh SW 16.0 mph25.7 kmh 29.72 in1006.4 mb 0.00 in0.0 mm 0.00 in/hr0.0 mm/hr 0.00 in0.0 mm
01:08 AM 70.4°F21.3°C 64.3°F17.9°C 81% 3.0 mph SW4.8 kmh SW 16.0 mph25.7 kmh 29.73 in1006.8 mb 0.00 in0.0 mm 0.00 in/hr0.0 mm/hr 0.00 in0.0 mm
01:05 AM 70.3°F21.3°C 64.6°F18.1°C 82% 4.0 mph SSW6.4 kmh SSW 16.0 mph25.7 kmh 29.72 in1006.4 mb 0.00 in0.0 mm 0.00 in/hr0.0 mm/hr 0.00 in0.0 mm
01:04 AM 70.2°F21.2°C 64.5°F18.1°C 82% 5.0 mph WSW8.0 kmh WSW 16.0 mph25.7 kmh 29.72 in1006.4 mb 0.00 in0.0 mm 0.00 in/hr0.0 mm/hr 0.00 in0.0 mm
01:03 AM 70.2°F21.2°C 64.5°F18.1°C 82% 4.0 mph WSW6.4 kmh WSW 16.0 mph25.7 kmh 29.72 in1006.4 mb 0.00 in0.0 mm 0.00 in/hr0.0 mm/hr 0.00 in0.0 mm
01:00 AM 69.8°F21.0°C 64.4°F18.0°C 83% 6.0 mph SW9.7 kmh SW 6.0 mph9.7 kmh 29.72 in1006.4 mb 0.00 in0.0 mm 0.00 in/hr0.0 mm/hr 0.00 in0.0 mm
12:59 AM 69.7°F20.9°C 64.3°F17.9°C 83% 3.0 mph SW4.8 kmh SW 19.0 mph30.6 kmh 29.72 in1006.4 mb 0.00 in0.0 mm 0.00 in/hr0.0 mm/hr 0.00 in0.0 mm
12:58 AM 69.6°F20.9°C 64.2°F17.9°C 83% 9.0 mph S14.5 kmh S 19.0 mph30.6 kmh 29.72 in1006.4 mb 0.00 in0.0 mm 0.00 in/hr0.0 mm/hr 0.00 in0.0 mm
12:55 AM 69.3°F20.7°C 64.3°F17.9°C 84% 4.0 mph SW6.4 kmh SW 15.0 mph24.1 kmh 29.72 in1006.4 mb 0.00 in0.0 mm 0.00 in/hr0.0 mm/hr 0.00 in0.0 mm
12:54 AM 69.1°F20.6°C 64.1°F17.8°C 84% 6.0 mph SSW9.7 kmh SSW 15.0 mph24.1 kmh 29.72 in1006.4 mb 0.00 in0.0 mm 0.00 in/hr0.0 mm/hr 0.00 in0.0 mm
12:53 AM 69.0°F20.6°C 64.0°F17.8°C 84% 3.0 mph SW4.8 kmh SW 15.0 mph24.1 kmh 29.72 in1006.4 mb 0.00 in0.0 mm 0.00 in/hr0.0 mm/hr 0.00 in0.0 mm
12:50 AM 68.7°F20.4°C 64.0°F17.8°C 85% 6.0 mph SSW9.7 kmh SSW 12.0 mph19.3 kmh 29.72 in1006.4 mb 0.00 in0.0 mm 0.00 in/hr0.0 mm/hr 0.00 in0.0 mm
12:49 AM 68.6°F20.3°C 63.9°F17.7°C 85% 6.0 mph SW9.7 kmh SW 12.0 mph19.3 kmh 29.72 in1006.4 mb 0.00 in0.0 mm 0.00 in/hr0.0 mm/hr 0.00 in0.0 mm
12:48 AM 68.5°F20.3°C 63.8°F17.7°C 85% 5.0 mph SW8.0 kmh SW 12.0 mph19.3 kmh 29.72 in1006.4 mb 0.00 in0.0 mm 0.00 in/hr0.0 mm/hr 0.00 in0.0 mm
12:45 AM 68.1°F20.1°C 63.8°F17.7°C 86% 4.0 mph SSW6.4 kmh SSW 12.0 mph19.3 kmh 29.72 in1006.4 mb 0.00 in0.0 mm 0.00 in/hr0.0 mm/hr 0.00 in0.0 mm
12:44 AM 68.0°F20.0°C 63.7°F17.6°C 86% 4.0 mph SSW6.4 kmh SSW 12.0 mph19.3 kmh 29.72 in1006.4 mb 0.00 in0.0 mm 0.00 in/hr0.0 mm/hr 0.00 in0.0 mm
12:43 AM 67.8°F19.9°C 63.5°F17.5°C 86% 5.0 mph SW8.0 kmh SW 12.0 mph19.3 kmh 29.72 in1006.4 mb 0.00 in0.0 mm 0.00 in/hr0.0 mm/hr 0.00 in0.0 mm
12:40 AM 67.5°F19.7°C 63.2°F17.3°C 86% 9.0 mph SW14.5 kmh SW 12.0 mph19.3 kmh 29.72 in1006.4 mb 0.00 in0.0 mm 0.00 in/hr0.0 mm/hr 0.00 in0.0 mm
12:39 AM 67.5°F19.7°C 63.2°F17.3°C 86% 3.0 mph SW4.8 kmh SW 12.0 mph19.3 kmh 29.72 in1006.4 mb 0.00 in0.0 mm 0.00 in/hr0.0 mm/hr 0.00 in0.0 mm
12:38 AM 67.5°F19.7°C 62.8°F17.1°C 85% 9.0 mph SW14.5 kmh SW 12.0 mph19.3 kmh 29.72 in1006.4 mb 0.00 in0.0 mm 0.00 in/hr0.0 mm/hr 0.00 in0.0 mm
12:35 AM 67.4°F19.7°C 62.7°F17.1°C 85% 7.0 mph SW11.3 kmh SW 12.0 mph19.3 kmh 29.73 in1006.8 mb 0.00 in0.0 mm 0.00 in/hr0.0 mm/hr 0.00 in0.0 mm
12:34 AM 67.4°F19.7°C 63.1°F17.3°C 86% 5.0 mph SW8.0 kmh SW 12.0 mph19.3 kmh 29.72 in1006.4 mb 0.00 in0.0 mm 0.00 in/hr0.0 mm/hr 0.00 in0.0 mm
12:33 AM 67.3°F19.6°C 63.0°F17.2°C 86% 4.0 mph SW6.4 kmh SW 12.0 mph19.3 kmh 29.72 in1006.4 mb 0.00 in0.0 mm 0.00 in/hr0.0 mm/hr 0.00 in0.0 mm
12:30 AM 67.3°F19.6°C 62.6°F17.0°C 85% 7.0 mph SW11.3 kmh SW 11.0 mph17.7 kmh 29.73 in1006.8 mb 0.00 in0.0 mm 0.00 in/hr0.0 mm/hr 0.00 in0.0 mm
12:29 AM 67.3°F19.6°C 62.6°F17.0°C 85% 4.0 mph SW6.4 kmh SW 11.0 mph17.7 kmh 29.72 in1006.4 mb 0.00 in0.0 mm 0.00 in/hr0.0 mm/hr 0.00 in0.0 mm
12:28 AM 67.3°F19.6°C 62.6°F17.0°C 85% 5.0 mph SW8.0 kmh SW 10.0 mph16.1 kmh 29.72 in1006.4 mb 0.00 in0.0 mm 0.00 in/hr0.0 mm/hr 0.00 in0.0 mm
12:25 AM 67.5°F19.7°C 62.8°F17.1°C 85% 1.0 mph SW1.6 kmh SW 10.0 mph16.1 kmh 29.72 in1006.4 mb 0.00 in0.0 mm 0.00 in/hr0.0 mm/hr 0.00 in0.0 mm
12:24 AM 67.5°F19.7°C 62.8°F17.1°C 85% 5.0 mph SW8.0 kmh SW 10.0 mph16.1 kmh 29.72 in1006.4 mb 0.00 in0.0 mm 0.00 in/hr0.0 mm/hr 0.00 in0.0 mm
12:23 AM 67.5°F19.7°C 62.8°F17.1°C 85% 1.0 mph SW1.6 kmh SW 10.0 mph16.1 kmh 29.72 in1006.4 mb 0.00 in0.0 mm 0.00 in/hr0.0 mm/hr 0.00 in0.0 mm
12:20 AM 67.6°F19.8°C 62.6°F17.0°C 84% 1.0 mph SW1.6 kmh SW 10.0 mph16.1 kmh 29.72 in1006.4 mb 0.00 in0.0 mm 0.00 in/hr0.0 mm/hr 0.00 in0.0 mm
12:19 AM 67.6°F19.8°C 62.9°F17.2°C 85% 5.0 mph SW8.0 kmh SW 10.0 mph16.1 kmh 29.72 in1006.4 mb 0.00 in0.0 mm 0.00 in/hr0.0 mm/hr 0.00 in0.0 mm
12:18 AM 67.7°F19.8°C 63.0°F17.2°C 85% 2.0 mph SW3.2 kmh SW 10.0 mph16.1 kmh 29.72 in1006.4 mb 0.00 in0.0 mm 0.00 in/hr0.0 mm/hr 0.00 in0.0 mm
12:15 AM 67.7°F19.8°C 63.0°F17.2°C 85% 1.0 mph SW1.6 kmh SW 7.0 mph11.3 kmh 29.72 in1006.4 mb 0.00 in0.0 mm 0.00 in/hr0.0 mm/hr 0.00 in0.0 mm
12:14 AM 67.7°F19.8°C 63.0°F17.2°C 85% Calm Calm 7.0 mph11.3 kmh 29.72 in1006.4 mb 0.00 in0.0 mm 0.00 in/hr0.0 mm/hr 0.00 in0.0 mm
12:13 AM 67.7°F19.8°C 62.7°F17.1°C 84% 4.0 mph SW6.4 kmh SW 7.0 mph11.3 kmh 29.72 in1006.4 mb 0.00 in0.0 mm 0.00 in/hr0.0 mm/hr 0.00 in0.0 mm
12:10 AM 67.7°F19.8°C 63.0°F17.2°C 85% Calm Calm 6.0 mph9.7 kmh 29.73 in1006.8 mb 0.00 in0.0 mm 0.00 in/hr0.0 mm/hr 0.00 in0.0 mm
12:09 AM 67.7°F19.8°C 63.0°F17.2°C 85% 3.0 mph SW4.8 kmh SW 6.0 mph9.7 kmh 29.73 in1006.8 mb 0.00 in0.0 mm 0.00 in/hr0.0 mm/hr 0.00 in0.0 mm
12:08 AM 67.7°F19.8°C 62.7°F17.1°C 84% Calm Calm 6.0 mph9.7 kmh 29.73 in1006.8 mb 0.00 in0.0 mm 0.00 in/hr0.0 mm/hr 0.00 in0.0 mm
12:05 AM 67.7°F19.8°C 62.7°F17.1°C 84% 4.0 mph SW6.4 kmh SW 5.0 mph8.0 kmh 29.73 in1006.8 mb 0.00 in0.0 mm 0.00 in/hr0.0 mm/hr 0.00 in0.0 mm
12:04 AM 67.7°F19.8°C 62.7°F17.1°C 84% 2.0 mph SW3.2 kmh SW 5.0 mph8.0 kmh 29.73 in1006.8 mb 0.00 in0.0 mm 0.00 in/hr0.0 mm/hr 0.00 in0.0 mm
12:03 AM 67.7°F19.8°C 63.0°F17.2°C 85% 4.0 mph SW6.4 kmh SW 5.0 mph8.0 kmh 29.73 in1006.8 mb 0.00 in0.0 mm 0.00 in/hr0.0 mm/hr 0.00 in0.0 mm
12:00 AM 67.8°F19.9°C 63.1°F17.3°C 85% Calm Calm -- 29.73 in1006.8 mb 0.00 in0.0 mm 0.00 in/hr0.0 mm/hr 0.00 in0.0 mm